createdAt,value
2022-07-28T00:00:59.858Z,100325.47
2022-07-28T00:06:01.287Z,100321.06
2022-07-28T00:11:02.698Z,100323.22
2022-07-28T00:16:04.337Z,100329.25
2022-07-28T00:21:05.825Z,100335.03
2022-07-28T00:26:11.777Z,100328.75
2022-07-28T00:31:13.208Z,100318.75
2022-07-28T00:36:15.258Z,100325.97
2022-07-28T00:41:19.573Z,100323.97
2022-07-28T00:46:21.962Z,100323.13
2022-07-28T00:51:26.662Z,100320.38
2022-07-28T00:56:28.069Z,100320.91
2022-07-28T01:01:29.551Z,100322.84
2022-07-28T01:06:54.638Z,100313.44
2022-07-28T01:12:09.380Z,100313.19
2022-07-28T01:17:24.942Z,100305.53
2022-07-28T01:22:28.851Z,100314.28
2022-07-28T01:27:38.109Z,100312.38
2022-07-28T01:32:44.323Z,100313.72
2022-07-28T01:37:47.106Z,100324.38
2022-07-28T01:42:50.733Z,100316.50
2022-07-28T01:47:53.146Z,100318.63
2022-07-28T01:52:54.577Z,100312.00
2022-07-28T01:57:56.057Z,100310.66
2022-07-28T02:02:57.469Z,100311.72
2022-07-28T02:07:59.154Z,100310.91
2022-07-28T02:13:00.671Z,100302.56
2022-07-28T02:18:02.109Z,100300.41
2022-07-28T02:23:03.566Z,100308.91
2022-07-28T02:28:06.478Z,100309.78
2022-07-28T02:33:11.341Z,100313.56
2022-07-28T02:38:24.241Z,100308.41
2022-07-28T02:43:49.988Z,100322.88
2022-07-28T02:48:52.835Z,100314.06
2022-07-28T02:53:54.322Z,100327.09
2022-07-28T02:58:55.719Z,100329.72
2022-07-28T03:03:57.134Z,100336.56
2022-07-28T03:08:58.615Z,100337.66
2022-07-28T03:14:01.967Z,100340.19
2022-07-28T03:19:03.489Z,100348.06
2022-07-28T03:24:05.257Z,100356.63
2022-07-28T03:29:07.509Z,100361.59
2022-07-28T03:34:11.675Z,100371.19
2022-07-28T03:39:15.627Z,100363.19
2022-07-28T03:44:17.257Z,100371.69
2022-07-28T03:49:30.385Z,100372.22
2022-07-28T03:54:31.801Z,100373.63
2022-07-28T03:59:33.205Z,100368.69
2022-07-28T04:04:34.610Z,100372.72
2022-07-28T04:09:36.015Z,100379.94
2022-07-28T04:14:37.418Z,100363.19
2022-07-28T04:19:38.821Z,100366.22
2022-07-28T04:24:40.253Z,100373.66
2022-07-28T04:29:41.650Z,100364.22
2022-07-28T04:34:43.061Z,100365.13
2022-07-28T04:39:45.161Z,100367.59
2022-07-28T04:44:46.849Z,100372.44
2022-07-28T04:49:48.270Z,100379.44
2022-07-28T04:54:49.754Z,100366.44
2022-07-28T04:59:53.865Z,100365.66
2022-07-28T05:04:58.387Z,100360.22
2022-07-28T05:09:59.834Z,100369.53
2022-07-28T05:15:01.285Z,100364.09
2022-07-28T05:20:03.703Z,100372.78
2022-07-28T05:25:06.202Z,100371.13
2022-07-28T05:30:08.521Z,100367.88
2022-07-28T05:35:10.034Z,100361.34
2022-07-28T05:40:16.212Z,100364.59
2022-07-28T05:45:18.007Z,100365.19
2022-07-28T05:50:21.529Z,100371.03
2022-07-28T05:55:23.042Z,100368.84
2022-07-28T06:00:24.489Z,100364.72
2022-07-28T06:05:26.146Z,100375.00
2022-07-28T06:10:28.071Z,100379.09
2022-07-28T06:15:29.541Z,100387.09
2022-07-28T06:20:30.963Z,100386.56
2022-07-28T06:25:32.452Z,100381.41
2022-07-28T06:30:33.885Z,100384.94
2022-07-28T06:35:45.253Z,100393.22
2022-07-28T06:40:49.537Z,100389.16
2022-07-28T06:45:51.202Z,100392.00
2022-07-28T06:50:52.620Z,100388.22
2022-07-28T06:55:54.029Z,100393.84
2022-07-28T07:00:55.733Z,100393.69
2022-07-28T07:05:57.493Z,100396.88
2022-07-28T07:10:58.957Z,100392.22
2022-07-28T07:16:00.523Z,100379.66
2022-07-28T07:21:02.021Z,100379.22
2022-07-28T07:26:03.634Z,100371.03
2022-07-28T07:31:05.070Z,100381.72
2022-07-28T07:36:06.872Z,100388.69
2022-07-28T07:41:08.277Z,100387.97
2022-07-28T07:46:09.882Z,100381.41
2022-07-28T07:51:15.614Z,100387.66
2022-07-28T07:56:18.271Z,100374.75
2022-07-28T08:01:19.708Z,100383.97
2022-07-28T08:06:26.360Z,100382.25
2022-07-28T08:11:28.277Z,100383.44
2022-07-28T08:16:29.740Z,100376.03
2022-07-28T08:21:31.213Z,100379.03
2022-07-28T08:26:32.667Z,100373.56
2022-07-28T08:31:35.406Z,100373.84
2022-07-28T08:36:37.050Z,100373.63
2022-07-28T08:41:46.914Z,100370.88
2022-07-28T08:46:51.237Z,100365.44
2022-07-28T08:51:52.674Z,100363.81
2022-07-28T08:56:54.580Z,100361.56
2022-07-28T09:01:57.764Z,100360.25
2022-07-28T09:06:59.737Z,100355.00
2022-07-28T09:12:07.085Z,100346.75
2022-07-28T09:17:08.503Z,100336.63
2022-07-28T09:22:09.948Z,100347.72
2022-07-28T09:27:12.590Z,100335.03
2022-07-28T09:32:17.509Z,100337.25
2022-07-28T09:37:28.554Z,100332.81
2022-07-28T09:42:45.563Z,100339.78
2022-07-28T09:47:47.216Z,100330.97
2022-07-28T09:52:48.769Z,100328.50
2022-07-28T09:57:50.663Z,100326.00
2022-07-28T10:02:53.268Z,100318.59
2022-07-28T10:07:54.741Z,100316.97
2022-07-28T10:13:04.781Z,100307.03
2022-07-28T10:18:06.234Z,100303.13
2022-07-28T10:23:11.405Z,100302.59
2022-07-28T10:28:12.813Z,100297.31
2022-07-28T10:33:14.689Z,100289.38
2022-07-28T10:38:16.362Z,100286.91
2022-07-28T10:43:17.770Z,100280.88
2022-07-28T10:48:21.634Z,100286.63
2022-07-28T10:53:42.563Z,100268.69
2022-07-28T10:59:04.742Z,100265.94
2022-07-28T11:04:07.674Z,100263.16
2022-07-28T11:09:17.909Z,100255.41
2022-07-28T11:14:37.546Z,100250.06
2022-07-28T11:25:20.287Z,100243.25
2022-07-28T11:30:25.771Z,100249.50
2022-07-28T11:35:27.908Z,100237.69
2022-07-28T11:40:35.968Z,100225.81
2022-07-28T11:45:38.911Z,100228.81
2022-07-28T11:50:42.422Z,100228.03
2022-07-28T11:55:55.593Z,100218.66
2022-07-28T12:01:20.127Z,100213.41
2022-07-28T12:06:28.693Z,100208.72
2022-07-28T12:11:32.377Z,100211.19
2022-07-28T12:16:35.207Z,100212.03
2022-07-28T12:21:46.586Z,100199.63
2022-07-28T12:26:50.565Z,100192.75
2022-07-28T12:31:56.158Z,100190.00
2022-07-28T12:36:58.440Z,100186.97
2022-07-28T12:42:04.445Z,100179.28
2022-07-28T12:47:07.920Z,100180.91
2022-07-28T12:52:24.458Z,100171.00
2022-07-28T12:57:48.079Z,100164.13
2022-07-28T13:02:51.919Z,100160.81
2022-07-28T13:08:04.874Z,100157.50
2022-07-28T13:13:07.290Z,100154.22
2022-07-28T13:18:08.749Z,100145.41
2022-07-28T13:23:10.233Z,100140.69
2022-07-28T13:28:25.176Z,100131.13
2022-07-28T13:33:26.812Z,100124.22
2022-07-28T13:38:29.717Z,100119.81
2022-07-28T13:43:36.026Z,100118.97
2022-07-28T13:48:40.278Z,100118.16
2022-07-28T13:54:00.316Z,100111.28
2022-07-28T13:59:01.729Z,100104.69
2022-07-28T14:04:04.365Z,100104.97
2022-07-28T14:09:05.817Z,100105.50
2022-07-28T14:14:08.317Z,100111.81
2022-07-28T14:19:16.253Z,100101.09
2022-07-28T14:24:24.384Z,100102.75
2022-07-28T14:29:27.602Z,100090.38
2022-07-28T14:34:29.022Z,100083.22
2022-07-28T14:39:30.456Z,100079.38
2022-07-28T14:44:31.864Z,100085.72
2022-07-28T14:49:34.473Z,100076.91
2022-07-28T14:54:35.877Z,100078.84
2022-07-28T14:59:37.290Z,100076.91
2022-07-28T15:04:38.698Z,100068.09
2022-07-28T15:09:44.235Z,100067.81
2022-07-28T15:14:47.629Z,100071.41
2022-07-28T15:19:49.038Z,100066.75
2022-07-28T15:24:50.542Z,100070.28
2022-07-28T15:29:52.494Z,100060.94
2022-07-28T15:34:54.166Z,100061.50
2022-07-28T15:39:55.673Z,100056.28
2022-07-28T15:45:01.017Z,100048.81
2022-07-28T15:50:02.862Z,100047.47
2022-07-28T15:55:04.626Z,100044.19
2022-07-28T16:00:06.592Z,100041.97
2022-07-28T16:05:08.110Z,100043.31
2022-07-28T16:10:09.625Z,100041.94
2022-07-28T16:15:11.037Z,100041.16
2022-07-28T16:20:12.482Z,100037.84
2022-07-28T16:25:16.877Z,100027.09
2022-07-28T16:30:18.816Z,100036.97
2022-07-28T16:35:20.266Z,100026.81
2022-07-28T16:40:21.725Z,100026.25
2022-07-28T16:45:23.397Z,100031.75
2022-07-28T16:50:32.669Z,100039.22
2022-07-28T16:55:34.257Z,100036.44
2022-07-28T17:00:35.897Z,100039.22
2022-07-28T17:05:37.546Z,100035.34
2022-07-28T17:10:38.950Z,100040.03
2022-07-28T17:15:40.373Z,100040.88
2022-07-28T17:20:41.892Z,100054.34
2022-07-28T17:26:04.967Z,100048.81
2022-07-28T17:31:04.763Z,100047.47
2022-07-28T17:36:06.326Z,100051.88
2022-07-28T17:41:09.038Z,100043.31
2022-07-28T17:46:11.251Z,100045.53
2022-07-28T17:51:13.597Z,100046.06
2022-07-28T17:56:15.017Z,100052.69
2022-07-28T18:01:16.558Z,100051.56
2022-07-28T18:06:18.023Z,100050.47
2022-07-28T18:11:19.437Z,100058.44
2022-07-28T18:16:21.097Z,100060.13
2022-07-28T18:21:22.561Z,100054.91
2022-07-28T18:26:24.014Z,100054.91
2022-07-28T18:31:25.529Z,100053.78
2022-07-28T18:36:26.978Z,100049.34
2022-07-28T18:41:28.897Z,100049.09
2022-07-28T18:46:36.125Z,100046.66
2022-07-28T18:51:37.661Z,100047.19
2022-07-28T18:56:39.081Z,100058.72
2022-07-28T19:01:40.525Z,100056.53
2022-07-28T19:06:41.997Z,100062.88
2022-07-28T19:11:46.203Z,100071.66
2022-07-28T19:16:48.055Z,100072.75
2022-07-28T19:21:49.497Z,100083.50
2022-07-28T19:26:51.431Z,100082.66
2022-07-28T19:31:52.906Z,100099.47
2022-07-28T19:36:54.705Z,100099.72
2022-07-28T19:41:56.127Z,100102.47
2022-07-28T19:46:58.144Z,100102.47
2022-07-28T19:52:01.148Z,100107.72
2022-07-28T19:57:02.607Z,100113.22
2022-07-28T20:02:14.191Z,100118.97
2022-07-28T20:07:15.797Z,100114.00
2022-07-28T20:12:17.550Z,100120.34
2022-07-28T20:17:37.085Z,100122.81
2022-07-28T20:22:39.774Z,100132.44
2022-07-28T20:27:41.937Z,100133.03
2022-07-28T20:32:44.069Z,100139.06
2022-07-28T20:37:45.544Z,100130.81
2022-07-28T20:42:52.544Z,100144.28
2022-07-28T20:47:54.484Z,100142.59
2022-07-28T20:52:55.997Z,100141.78
2022-07-28T20:57:57.469Z,100138.22
2022-07-28T21:02:59.020Z,100144.56
2022-07-28T21:08:06.018Z,100139.59
2022-07-28T21:13:10.869Z,100147.03
2022-07-28T21:18:12.350Z,100151.69
2022-07-28T21:23:13.769Z,100143.72
2022-07-28T21:28:33.726Z,100146.19
2022-07-28T21:33:35.150Z,100148.63
2022-07-28T21:38:36.622Z,100148.03
2022-07-28T21:43:38.089Z,100153.59
2022-07-28T21:48:39.633Z,100146.94
2022-07-28T21:53:42.059Z,100150.44
2022-07-28T21:58:43.493Z,100154.84
2022-07-28T22:03:44.962Z,100160.38
2022-07-28T22:08:49.946Z,100155.63
2022-07-28T22:13:51.418Z,100163.53
2022-07-28T22:18:52.826Z,100158.91
2022-07-28T22:23:54.229Z,100172.66
2022-07-28T22:28:55.634Z,100171.88
2022-07-28T22:33:57.404Z,100188.78
2022-07-28T22:38:59.053Z,100188.56
2022-07-28T22:44:00.481Z,100185.44
2022-07-28T22:49:01.994Z,100190.94
2022-07-28T22:54:03.473Z,100183.50
2022-07-28T22:59:04.976Z,100184.63
2022-07-28T23:04:06.953Z,100182.09
2022-07-28T23:09:09.147Z,100185.66
2022-07-28T23:14:10.557Z,100188.41
2022-07-28T23:19:12.258Z,100196.91
2022-07-28T23:24:14.122Z,100203.81
2022-07-28T23:29:15.731Z,100205.41
2022-07-28T23:34:17.574Z,100202.97
2022-07-28T23:39:19.389Z,100203.31
2022-07-28T23:44:20.809Z,100196.03
2022-07-28T23:49:22.401Z,100190.28
2022-07-28T23:54:23.888Z,100183.97
2022-07-28T23:59:25.297Z,100178.47
